sensor_id;sensor_type;location;lat;lon;timestamp;pressure;altitude;pressure_sealevel;temperature;humidity
65659;BME280;60181;53.258;6.932;2023-03-04T00:02:21;102646.41;;;12.98;53.03
65659;BME280;60181;53.258;6.932;2023-03-04T00:06:25;102646.45;;;12.97;52.89
65659;BME280;60181;53.258;6.932;2023-03-04T00:10:29;102646.41;;;12.97;52.76
65659;BME280;60181;53.258;6.932;2023-03-04T00:14:33;102646.45;;;12.98;52.80
65659;BME280;60181;53.258;6.932;2023-03-04T00:18:37;102645.95;;;13.01;53.19
65659;BME280;60181;53.258;6.932;2023-03-04T00:22:41;102642.72;;;13.06;53.24
65659;BME280;60181;53.258;6.932;2023-03-04T00:26:45;102641.37;;;13.09;53.51
65659;BME280;60181;53.258;6.932;2023-03-04T00:30:49;102638.26;;;13.13;53.39
65659;BME280;60181;53.258;6.932;2023-03-04T00:34:53;102635.77;;;13.15;53.43
65659;BME280;60181;53.258;6.932;2023-03-04T00:38:57;102632.19;;;13.16;53.49
65659;BME280;60181;53.258;6.932;2023-03-04T00:43:01;102628.67;;;13.17;53.56
65659;BME280;60181;53.258;6.932;2023-03-04T00:47:05;102624.94;;;13.18;53.55
65659;BME280;60181;53.258;6.932;2023-03-04T00:51:09;102621.08;;;13.20;53.74
65659;BME280;60181;53.258;6.932;2023-03-04T00:55:13;102617.52;;;13.21;53.74
65659;BME280;60181;53.258;6.932;2023-03-04T00:59:17;102614.53;;;13.22;53.87
65659;BME280;60181;53.258;6.932;2023-03-04T01:03:21;102613.35;;;13.22;53.81
65659;BME280;60181;53.258;6.932;2023-03-04T01:07:25;102612.90;;;13.21;53.94
65659;BME280;60181;53.258;6.932;2023-03-04T01:11:29;102613.60;;;13.20;53.90
65659;BME280;60181;53.258;6.932;2023-03-04T01:15:33;102611.77;;;13.19;54.08
65659;BME280;60181;53.258;6.932;2023-03-04T01:19:37;102609.80;;;13.18;54.13
65659;BME280;60181;53.258;6.932;2023-03-04T01:23:41;102607.76;;;13.17;53.99
65659;BME280;60181;53.258;6.932;2023-03-04T01:27:45;102604.91;;;13.15;53.78
65659;BME280;60181;53.258;6.932;2023-03-04T01:31:49;102602.61;;;13.12;53.42
65659;BME280;60181;53.258;6.932;2023-03-04T01:35:53;102598.68;;;13.09;53.37
65659;BME280;60181;53.258;6.932;2023-03-04T01:39:57;102595.50;;;13.07;53.32
65659;BME280;60181;53.258;6.932;2023-03-04T01:44:01;102591.59;;;13.07;53.32
65659;BME280;60181;53.258;6.932;2023-03-04T01:48:07;102586.78;;;13.08;53.40
65659;BME280;60181;53.258;6.932;2023-03-04T01:52:10;102582.39;;;13.08;53.21
65659;BME280;60181;53.258;6.932;2023-03-04T01:56:14;102577.75;;;13.10;53.42
65659;BME280;60181;53.258;6.932;2023-03-04T02:04:23;102567.72;;;13.16;53.38
65659;BME280;60181;53.258;6.932;2023-03-04T02:08:25;102562.01;;;13.22;53.31
65659;BME280;60181;53.258;6.932;2023-03-04T02:12:29;102556.49;;;13.26;53.54
65659;BME280;60181;53.258;6.932;2023-03-04T02:16:33;102552.94;;;13.24;53.79
65659;BME280;60181;53.258;6.932;2023-03-04T02:20:40;102550.49;;;13.20;53.90
65659;BME280;60181;53.258;6.932;2023-03-04T02:24:44;102548.43;;;13.16;53.71
65659;BME280;60181;53.258;6.932;2023-03-04T02:28:46;102545.74;;;13.13;53.88
65659;BME280;60181;53.258;6.932;2023-03-04T02:32:49;102542.47;;;13.10;53.91
65659;BME280;60181;53.258;6.932;2023-03-04T02:36:53;102539.69;;;13.09;53.90
65659;BME280;60181;53.258;6.932;2023-03-04T02:40:57;102536.51;;;13.08;53.97
65659;BME280;60181;53.258;6.932;2023-03-04T02:45:01;102533.25;;;13.06;53.89
65659;BME280;60181;53.258;6.932;2023-03-04T02:49:05;102530.52;;;13.04;54.03
65659;BME280;60181;53.258;6.932;2023-03-04T02:53:09;102527.88;;;13.02;54.00
65659;BME280;60181;53.258;6.932;2023-03-04T02:57:13;102523.67;;;13.02;54.16
65659;BME280;60181;53.258;6.932;2023-03-04T03:01:17;102518.65;;;13.02;54.10
65659;BME280;60181;53.258;6.932;2023-03-04T03:05:22;102513.27;;;13.01;54.19
65659;BME280;60181;53.258;6.932;2023-03-04T03:09:25;102509.44;;;13.00;54.33
65659;BME280;60181;53.258;6.932;2023-03-04T03:13:29;102504.83;;;13.00;54.28
65659;BME280;60181;53.258;6.932;2023-03-04T03:17:33;102499.94;;;13.01;54.54
65659;BME280;60181;53.258;6.932;2023-03-04T03:21:37;102496.96;;;13.04;54.67
65659;BME280;60181;53.258;6.932;2023-03-04T03:25:41;102493.19;;;13.06;54.86
65659;BME280;60181;53.258;6.932;2023-03-04T03:29:45;102489.92;;;13.08;55.10
65659;BME280;60181;53.258;6.932;2023-03-04T03:33:49;102487.17;;;13.10;55.11
65659;BME280;60181;53.258;6.932;2023-03-04T03:37:53;102483.84;;;13.11;55.23
65659;BME280;60181;53.258;6.932;2023-03-04T03:41:57;102481.38;;;13.11;55.43
65659;BME280;60181;53.258;6.932;2023-03-04T03:46:01;102478.75;;;13.11;55.47
65659;BME280;60181;53.258;6.932;2023-03-04T03:50:05;102476.79;;;13.15;56.16
65659;BME280;60181;53.258;6.932;2023-03-04T03:54:09;102475.04;;;13.20;55.48
65659;BME280;60181;53.258;6.932;2023-03-04T03:58:13;102473.55;;;13.22;55.73
65659;BME280;60181;53.258;6.932;2023-03-04T04:02:17;102470.52;;;13.22;56.21
65659;BME280;60181;53.258;6.932;2023-03-04T04:06:21;102468.19;;;13.24;55.94
65659;BME280;60181;53.258;6.932;2023-03-04T04:10:25;102466.78;;;13.25;55.96
65659;BME280;60181;53.258;6.932;2023-03-04T04:14:29;102465.20;;;13.27;56.00
65659;BME280;60181;53.258;6.932;2023-03-04T04:18:33;102464.06;;;13.29;56.18
65659;BME280;60181;53.258;6.932;2023-03-04T04:22:37;102462.79;;;13.30;56.31
65659;BME280;60181;53.258;6.932;2023-03-04T04:26:41;102460.97;;;13.35;57.76
65659;BME280;60181;53.258;6.932;2023-03-04T04:30:45;102459.78;;;13.44;56.17
65659;BME280;60181;53.258;6.932;2023-03-04T04:34:49;102459.56;;;13.50;56.35
65659;BME280;60181;53.258;6.932;2023-03-04T04:38:53;102459.08;;;13.55;56.56
65659;BME280;60181;53.258;6.932;2023-03-04T04:42:57;102459.30;;;13.57;56.62
65659;BME280;60181;53.258;6.932;2023-03-04T04:47:01;102459.69;;;13.59;56.71
65659;BME280;60181;53.258;6.932;2023-03-04T04:51:05;102459.23;;;13.60;56.76
65659;BME280;60181;53.258;6.932;2023-03-04T04:55:09;102458.42;;;13.60;56.75
65659;BME280;60181;53.258;6.932;2023-03-04T04:59:13;102456.88;;;13.61;56.84
65659;BME280;60181;53.258;6.932;2023-03-04T05:03:17;102455.74;;;13.61;56.83
65659;BME280;60181;53.258;6.932;2023-03-04T05:07:21;102455.08;;;13.61;56.88
65659;BME280;60181;53.258;6.932;2023-03-04T05:11:25;102453.31;;;13.60;56.88
65659;BME280;60181;53.258;6.932;2023-03-04T05:15:29;102452.65;;;13.60;56.93
65659;BME280;60181;53.258;6.932;2023-03-04T05:19:33;102452.23;;;13.60;56.97
65659;BME280;60181;53.258;6.932;2023-03-04T05:23:38;102450.71;;;13.59;56.98
65659;BME280;60181;53.258;6.932;2023-03-04T05:27:41;102449.96;;;13.58;57.05
65659;BME280;60181;53.258;6.932;2023-03-04T05:31:45;102449.34;;;13.58;57.08
65659;BME280;60181;53.258;6.932;2023-03-04T05:35:49;102448.82;;;13.57;57.07
65659;BME280;60181;53.258;6.932;2023-03-04T05:39:53;102447.57;;;13.57;57.06
65659;BME280;60181;53.258;6.932;2023-03-04T05:43:57;102446.33;;;13.57;57.06
65659;BME280;60181;53.258;6.932;2023-03-04T05:48:01;102443.70;;;13.57;57.06
65659;BME280;60181;53.258;6.932;2023-03-04T05:52:05;102442.30;;;13.57;57.06
65659;BME280;60181;53.258;6.932;2023-03-04T05:56:10;102441.52;;;13.57;57.06
65659;BME280;60181;53.258;6.932;2023-03-04T06:00:13;102440.78;;;13.58;57.01
65659;BME280;60181;53.258;6.932;2023-03-04T06:04:17;102441.03;;;13.68;57.31
65659;BME280;60181;53.258;6.932;2023-03-04T06:08:21;102440.20;;;14.00;55.22
65659;BME280;60181;53.258;6.932;2023-03-04T06:12:25;102440.34;;;14.10;56.60
65659;BME280;60181;53.258;6.932;2023-03-04T06:16:29;102440.78;;;14.09;57.59
65659;BME280;60181;53.258;6.932;2023-03-04T06:20:33;102441.77;;;14.04;57.86
65659;BME280;60181;53.258;6.932;2023-03-04T06:24:37;102442.47;;;14.00;58.00
65659;BME280;60181;53.258;6.932;2023-03-04T06:28:41;102444.96;;;13.95;58.08
65659;BME280;60181;53.258;6.932;2023-03-04T06:32:45;102445.78;;;13.91;58.07
65659;BME280;60181;53.258;6.932;2023-03-04T06:36:49;102447.12;;;13.88;58.07
65659;BME280;60181;53.258;6.932;2023-03-04T06:40:53;102448.02;;;13.86;57.99
65659;BME280;60181;53.258;6.932;2023-03-04T06:44:57;102449.54;;;13.84;57.97
65659;BME280;60181;53.258;6.932;2023-03-04T06:49:01;102451.64;;;13.83;57.92
65659;BME280;60181;53.258;6.932;2023-03-04T06:53:05;102453.66;;;13.82;57.89
65659;BME280;60181;53.258;6.932;2023-03-04T06:57:09;102455.30;;;13.82;57.90
65659;BME280;60181;53.258;6.932;2023-03-04T07:01:14;102457.89;;;13.81;57.86
65659;BME280;60181;53.258;6.932;2023-03-04T07:05:17;102460.36;;;13.81;57.85
65659;BME280;60181;53.258;6.932;2023-03-04T07:09:21;102461.84;;;13.81;57.83
65659;BME280;60181;53.258;6.932;2023-03-04T07:13:25;102462.74;;;13.82;57.78
65659;BME280;60181;53.258;6.932;2023-03-04T07:17:29;102463.85;;;13.82;57.73
65659;BME280;60181;53.258;6.932;2023-03-04T07:21:33;102465.14;;;13.83;57.70
65659;BME280;60181;53.258;6.932;2023-03-04T07:25:37;102466.00;;;13.84;57.68
65659;BME280;60181;53.258;6.932;2023-03-04T07:29:41;102466.55;;;13.85;57.68
65659;BME280;60181;53.258;6.932;2023-03-04T07:33:45;102468.13;;;13.86;57.69
65659;BME280;60181;53.258;6.932;2023-03-04T07:37:49;102470.21;;;13.86;57.66
65659;BME280;60181;53.258;6.932;2023-03-04T07:41:53;102471.37;;;13.87;57.80
65659;BME280;60181;53.258;6.932;2023-03-04T07:45:57;102472.75;;;13.90;57.41
65659;BME280;60181;53.258;6.932;2023-03-04T07:50:01;102473.34;;;13.95;57.32
65659;BME280;60181;53.258;6.932;2023-03-04T07:54:05;102473.85;;;14.01;58.49
65659;BME280;60181;53.258;6.932;2023-03-04T07:58:09;102474.17;;;14.09;59.95
65659;BME280;60181;53.258;6.932;2023-03-04T08:02:13;102476.40;;;14.11;59.63
65659;BME280;60181;53.258;6.932;2023-03-04T08:06:17;102479.69;;;14.11;59.52
65659;BME280;60181;53.258;6.932;2023-03-04T08:10:21;102482.82;;;14.09;59.77
65659;BME280;60181;53.258;6.932;2023-03-04T08:14:24;102484.50;;;14.08;59.53
65659;BME280;60181;53.258;6.932;2023-03-04T08:18:29;102485.90;;;14.06;59.41
65659;BME280;60181;53.258;6.932;2023-03-04T08:22:32;102488.70;;;14.05;59.29
65659;BME280;60181;53.258;6.932;2023-03-04T08:26:39;102492.29;;;14.05;59.33
65659;BME280;60181;53.258;6.932;2023-03-04T08:30:40;102495.41;;;14.04;59.22
65659;BME280;60181;53.258;6.932;2023-03-04T08:34:44;102497.77;;;14.04;59.10
65659;BME280;60181;53.258;6.932;2023-03-04T08:38:48;102499.37;;;14.04;59.06
65659;BME280;60181;53.258;6.932;2023-03-04T08:42:52;102500.04;;;14.05;58.98
65659;BME280;60181;53.258;6.932;2023-03-04T08:46:56;102501.38;;;14.05;58.97
65659;BME280;60181;53.258;6.932;2023-03-04T08:51:01;102502.97;;;14.06;58.96
65659;BME280;60181;53.258;6.932;2023-03-04T08:55:05;102505.30;;;14.07;58.92
65659;BME280;60181;53.258;6.932;2023-03-04T08:59:08;102508.11;;;14.07;59.07
65659;BME280;60181;53.258;6.932;2023-03-04T09:03:13;102511.56;;;14.07;59.09
65659;BME280;60181;53.258;6.932;2023-03-04T09:07:16;102514.45;;;14.07;58.99
65659;BME280;60181;53.258;6.932;2023-03-04T09:11:20;102516.27;;;14.07;58.94
65659;BME280;60181;53.258;6.932;2023-03-04T09:15:24;102518.04;;;14.08;58.95
65659;BME280;60181;53.258;6.932;2023-03-04T09:19:28;102520.92;;;14.08;58.92
65659;BME280;60181;53.258;6.932;2023-03-04T09:23:33;102521.23;;;14.10;59.68
65659;BME280;60181;53.258;6.932;2023-03-04T09:27:36;102523.55;;;14.16;59.14
65659;BME280;60181;53.258;6.932;2023-03-04T09:31:40;102524.79;;;14.18;58.76
65659;BME280;60181;53.258;6.932;2023-03-04T09:35:44;102526.68;;;14.20;58.99
65659;BME280;60181;53.258;6.932;2023-03-04T09:39:48;102528.02;;;14.22;58.92
65659;BME280;60181;53.258;6.932;2023-03-04T09:43:52;102527.83;;;14.26;58.50
65659;BME280;60181;53.258;6.932;2023-03-04T09:47:56;102529.11;;;14.29;58.73
65659;BME280;60181;53.258;6.932;2023-03-04T09:52:09;102528.92;;;14.33;58.26
65659;BME280;60181;53.258;6.932;2023-03-04T09:56:04;102529.26;;;14.35;58.59
65659;BME280;60181;53.258;6.932;2023-03-04T10:00:16;102530.08;;;14.35;58.65
65659;BME280;60181;53.258;6.932;2023-03-04T10:04:14;102531.43;;;14.33;58.79
65659;BME280;60181;53.258;6.932;2023-03-04T10:12:21;102532.86;;;14.30;58.92
65659;BME280;60181;53.258;6.932;2023-03-04T10:16:26;102534.22;;;14.29;58.95
65659;BME280;60181;53.258;6.932;2023-03-04T10:20:35;102533.11;;;14.28;58.86
65659;BME280;60181;53.258;6.932;2023-03-04T10:24:33;102533.73;;;14.27;58.90
65659;BME280;60181;53.258;6.932;2023-03-04T10:28:36;102534.80;;;14.27;58.82
65659;BME280;60181;53.258;6.932;2023-03-04T10:32:44;102535.53;;;14.27;58.92
65659;BME280;60181;53.258;6.932;2023-03-04T10:36:46;102535.86;;;14.26;58.85
65659;BME280;60181;53.258;6.932;2023-03-04T10:40:48;102536.19;;;14.25;58.89
65659;BME280;60181;53.258;6.932;2023-03-04T10:44:57;102538.62;;;14.24;59.04
65659;BME280;60181;53.258;6.932;2023-03-04T10:48:56;102541.13;;;14.23;58.93
65659;BME280;60181;53.258;6.932;2023-03-04T10:53:00;102542.46;;;14.25;58.51
65659;BME280;60181;53.258;6.932;2023-03-04T10:57:05;102542.09;;;14.28;58.27
65659;BME280;60181;53.258;6.932;2023-03-04T11:01:09;102542.59;;;14.30;58.43
65659;BME280;60181;53.258;6.932;2023-03-04T11:05:17;102541.20;;;14.30;58.58
65659;BME280;60181;53.258;6.932;2023-03-04T11:09:20;102539.47;;;14.32;58.26
65659;BME280;60181;53.258;6.932;2023-03-04T11:13:21;102537.05;;;14.36;58.03
65659;BME280;60181;53.258;6.932;2023-03-04T11:17:25;102536.77;;;14.37;58.28
65659;BME280;60181;53.258;6.932;2023-03-04T11:21:29;102534.58;;;14.38;58.33
65659;BME280;60181;53.258;6.932;2023-03-04T11:25:34;102534.25;;;14.38;58.34
65659;BME280;60181;53.258;6.932;2023-03-04T11:29:47;102533.75;;;14.38;58.42
65659;BME280;60181;53.258;6.932;2023-03-04T11:33:42;102533.35;;;14.38;58.29
65659;BME280;60181;53.258;6.932;2023-03-04T11:37:46;102532.19;;;14.38;58.35
65659;BME280;60181;53.258;6.932;2023-03-04T11:41:53;102530.62;;;14.38;58.47
65659;BME280;60181;53.258;6.932;2023-03-04T11:45:59;102527.98;;;14.38;58.14
65659;BME280;60181;53.258;6.932;2023-03-04T12:02:12;102513.73;;;14.45;57.88
65659;BME280;60181;53.258;6.932;2023-03-04T12:06:28;102509.62;;;14.47;57.80
65659;BME280;60181;53.258;6.932;2023-03-04T12:14:27;102499.94;;;14.50;57.94
65659;BME280;60181;53.258;6.932;2023-03-04T12:26:37;102490.95;;;14.51;58.49
65659;BME280;60181;53.258;6.932;2023-03-04T12:34:43;102480.73;;;14.52;57.96
65659;BME280;60181;53.258;6.932;2023-03-04T12:38:48;102475.83;;;14.54;57.86
65659;BME280;60181;53.258;6.932;2023-03-04T12:46:57;102469.47;;;14.53;58.29
65659;BME280;60181;53.258;6.932;2023-03-04T12:55:07;102464.16;;;14.50;58.30
65659;BME280;60181;53.258;6.932;2023-03-04T12:59:04;102462.46;;;14.49;58.27
65659;BME280;60181;53.258;6.932;2023-03-04T13:19:46;102458.35;;;14.45;58.38
65659;BME280;60181;53.258;6.932;2023-03-04T13:23:28;102457.76;;;14.45;58.30
65659;BME280;60181;53.258;6.932;2023-03-04T13:27:48;102457.47;;;14.46;58.27
65659;BME280;60181;53.258;6.932;2023-03-04T13:39:44;102451.45;;;14.55;57.91
65659;BME280;60181;53.258;6.932;2023-03-04T13:43:49;102448.58;;;14.57;58.24
65659;BME280;60181;53.258;6.932;2023-03-04T13:47:52;102448.49;;;14.57;58.48
65659;BME280;60181;53.258;6.932;2023-03-04T13:51:56;102449.89;;;14.57;59.01
65659;BME280;60181;53.258;6.932;2023-03-04T13:56:11;102447.25;;;14.85;58.03
65659;BME280;60181;53.258;6.932;2023-03-04T14:00:04;102442.58;;;15.19;56.91
65659;BME280;60181;53.258;6.932;2023-03-04T14:04:18;102440.31;;;15.46;56.91
65659;BME280;60181;53.258;6.932;2023-03-04T14:08:18;102438.34;;;15.66;56.71
65659;BME280;60181;53.258;6.932;2023-03-04T14:12:16;102435.60;;;15.81;56.91
65659;BME280;60181;53.258;6.932;2023-03-04T14:16:20;102433.31;;;15.88;57.28
65659;BME280;60181;53.258;6.932;2023-03-04T14:20:37;102432.87;;;15.93;57.44
65659;BME280;60181;53.258;6.932;2023-03-04T14:24:28;102431.99;;;15.94;57.66
65659;BME280;60181;53.258;6.932;2023-03-04T14:28:32;102431.99;;;15.94;57.70
65659;BME280;60181;53.258;6.932;2023-03-04T14:32:36;102432.17;;;15.94;57.85
65659;BME280;60181;53.258;6.932;2023-03-04T14:36:42;102431.52;;;16.00;57.06
65659;BME280;60181;53.258;6.932;2023-03-04T14:40:45;102429.54;;;16.11;56.21
65659;BME280;60181;53.258;6.932;2023-03-04T14:44:48;102427.31;;;16.24;55.75
65659;BME280;60181;53.258;6.932;2023-03-04T14:48:52;102425.11;;;16.37;55.58
65659;BME280;60181;53.258;6.932;2023-03-04T14:53:03;102424.45;;;16.48;55.47
65659;BME280;60181;53.258;6.932;2023-03-04T14:57:10;102422.80;;;16.57;55.55
65659;BME280;60181;53.258;6.932;2023-03-04T15:01:12;102419.65;;;16.56;56.90
65659;BME280;60181;53.258;6.932;2023-03-04T15:05:18;102417.14;;;16.41;58.38
65659;BME280;60181;53.258;6.932;2023-03-04T15:09:22;102416.42;;;16.20;59.35
65659;BME280;60181;53.258;6.932;2023-03-04T15:13:16;102414.77;;;16.00;59.40
65659;BME280;60181;53.258;6.932;2023-03-04T15:17:25;102414.18;;;15.83;59.63
65659;BME280;60181;53.258;6.932;2023-03-04T15:21:29;102412.60;;;15.68;59.71
65659;BME280;60181;53.258;6.932;2023-03-04T15:25:28;102410.72;;;15.55;59.76
65659;BME280;60181;53.258;6.932;2023-03-04T15:29:32;102408.45;;;15.43;59.95
65659;BME280;60181;53.258;6.932;2023-03-04T15:33:36;102403.45;;;15.33;60.01
65659;BME280;60181;53.258;6.932;2023-03-04T15:37:40;102399.14;;;15.25;60.07
65659;BME280;60181;53.258;6.932;2023-03-04T15:41:44;102397.06;;;15.17;60.12
65659;BME280;60181;53.258;6.932;2023-03-04T15:45:48;102394.11;;;15.11;60.21
65659;BME280;60181;53.258;6.932;2023-03-04T15:49:52;102391.02;;;15.04;60.27
65659;BME280;60181;53.258;6.932;2023-03-04T15:53:56;102389.59;;;14.99;60.36
65659;BME280;60181;53.258;6.932;2023-03-04T15:58:00;102387.95;;;14.94;60.31
65659;BME280;60181;53.258;6.932;2023-03-04T16:02:07;102386.72;;;14.91;60.56
65659;BME280;60181;53.258;6.932;2023-03-04T16:06:11;102385.82;;;14.91;59.91
65659;BME280;60181;53.258;6.932;2023-03-04T16:10:15;102387.09;;;14.89;60.42
65659;BME280;60181;53.258;6.932;2023-03-04T16:14:16;102387.17;;;14.89;60.02
65659;BME280;60181;53.258;6.932;2023-03-04T16:18:20;102388.75;;;14.87;60.29
65659;BME280;60181;53.258;6.932;2023-03-04T16:22:24;102389.74;;;14.85;60.50
65659;BME280;60181;53.258;6.932;2023-03-04T16:26:28;102390.86;;;14.81;60.66
65659;BME280;60181;53.258;6.932;2023-03-04T16:30:32;102391.91;;;14.79;60.72
65659;BME280;60181;53.258;6.932;2023-03-04T16:34:36;102392.69;;;14.78;60.47
65659;BME280;60181;53.258;6.932;2023-03-04T16:38:40;102393.43;;;14.75;60.67
65659;BME280;60181;53.258;6.932;2023-03-04T16:42:44;102393.39;;;14.72;60.74
65659;BME280;60181;53.258;6.932;2023-03-04T16:46:48;102393.06;;;14.69;60.72
65659;BME280;60181;53.258;6.932;2023-03-04T16:50:52;102391.67;;;14.66;60.71
65659;BME280;60181;53.258;6.932;2023-03-04T16:54:56;102390.64;;;14.64;60.73
65659;BME280;60181;53.258;6.932;2023-03-04T16:59:00;102389.57;;;14.62;60.71
65659;BME280;60181;53.258;6.932;2023-03-04T17:03:04;102387.64;;;14.62;60.73
65659;BME280;60181;53.258;6.932;2023-03-04T17:07:08;102385.03;;;14.63;60.31
65659;BME280;60181;53.258;6.932;2023-03-04T17:11:14;102381.66;;;14.63;60.44
65659;BME280;60181;53.258;6.932;2023-03-04T17:15:16;102379.92;;;14.62;60.51
65659;BME280;60181;53.258;6.932;2023-03-04T17:19:20;102379.55;;;14.61;60.58
65659;BME280;60181;53.258;6.932;2023-03-04T17:23:24;102379.85;;;14.60;60.54
65659;BME280;60181;53.258;6.932;2023-03-04T17:27:28;102377.90;;;14.59;60.60
65659;BME280;60181;53.258;6.932;2023-03-04T17:31:32;102377.50;;;14.57;60.57
65659;BME280;60181;53.258;6.932;2023-03-04T17:35:37;102377.29;;;14.56;60.58
65659;BME280;60181;53.258;6.932;2023-03-04T17:39:40;102373.78;;;14.55;60.62
65659;BME280;60181;53.258;6.932;2023-03-04T17:43:45;102372.06;;;14.53;60.65
65659;BME280;60181;53.258;6.932;2023-03-04T17:47:48;102371.11;;;14.52;60.52
65659;BME280;60181;53.258;6.932;2023-03-04T17:51:52;102371.84;;;14.51;60.56
65659;BME280;60181;53.258;6.932;2023-03-04T17:55:56;102373.61;;;14.50;60.60
65659;BME280;60181;53.258;6.932;2023-03-04T18:00:00;102375.89;;;14.49;60.60
65659;BME280;60181;53.258;6.932;2023-03-04T18:04:04;102378.65;;;14.48;60.62
65659;BME280;60181;53.258;6.932;2023-03-04T18:08:08;102379.60;;;14.47;60.67
65659;BME280;60181;53.258;6.932;2023-03-04T18:12:12;102380.63;;;14.46;60.63
65659;BME280;60181;53.258;6.932;2023-03-04T18:16:16;102380.76;;;14.45;60.64
65659;BME280;60181;53.258;6.932;2023-03-04T18:20:20;102380.88;;;14.44;60.64
65659;BME280;60181;53.258;6.932;2023-03-04T18:24:24;102381.13;;;14.43;60.59
65659;BME280;60181;53.258;6.932;2023-03-04T18:28:28;102380.02;;;14.42;60.57
65659;BME280;60181;53.258;6.932;2023-03-04T18:32:32;102379.39;;;14.42;60.57
65659;BME280;60181;53.258;6.932;2023-03-04T18:36:36;102380.22;;;14.41;60.58
65659;BME280;60181;53.258;6.932;2023-03-04T18:40:40;102378.69;;;14.40;60.60
65659;BME280;60181;53.258;6.932;2023-03-04T18:44:44;102375.51;;;14.39;60.54
65659;BME280;60181;53.258;6.932;2023-03-04T18:48:51;102374.41;;;14.38;60.48
65659;BME280;60181;53.258;6.932;2023-03-04T18:52:52;102372.67;;;14.38;60.52
65659;BME280;60181;53.258;6.932;2023-03-04T18:56:56;102370.24;;;14.37;60.49
65659;BME280;60181;53.258;6.932;2023-03-04T19:01:00;102368.39;;;14.36;60.51
65659;BME280;60181;53.258;6.932;2023-03-04T19:05:11;102366.66;;;14.35;60.56
65659;BME280;60181;53.258;6.932;2023-03-04T19:09:08;102364.79;;;14.34;60.51
65659;BME280;60181;53.258;6.932;2023-03-04T19:13:12;102362.13;;;14.34;60.50
65659;BME280;60181;53.258;6.932;2023-03-04T19:17:16;102361.70;;;14.33;60.45
65659;BME280;60181;53.258;6.932;2023-03-04T19:21:20;102359.77;;;14.32;60.45
65659;BME280;60181;53.258;6.932;2023-03-04T19:25:24;102358.00;;;14.32;60.44
65659;BME280;60181;53.258;6.932;2023-03-04T19:29:28;102356.35;;;14.31;60.45
65659;BME280;60181;53.258;6.932;2023-03-04T19:33:33;102354.58;;;14.30;60.44
65659;BME280;60181;53.258;6.932;2023-03-04T19:37:35;102352.76;;;14.30;60.39
65659;BME280;60181;53.258;6.932;2023-03-04T19:41:40;102352.48;;;14.29;60.39
65659;BME280;60181;53.258;6.932;2023-03-04T19:45:50;102353.22;;;14.29;60.36
65659;BME280;60181;53.258;6.932;2023-03-04T19:49:47;102354.38;;;14.29;60.39
65659;BME280;60181;53.258;6.932;2023-03-04T19:53:52;102352.69;;;14.28;60.41
65659;BME280;60181;53.258;6.932;2023-03-04T19:57:55;102350.58;;;14.27;60.37
65659;BME280;60181;53.258;6.932;2023-03-04T20:01:59;102348.93;;;14.26;60.32
65659;BME280;60181;53.258;6.932;2023-03-04T20:06:04;102347.91;;;14.26;60.32
65659;BME280;60181;53.258;6.932;2023-03-04T20:10:08;102347.13;;;14.25;60.31
65659;BME280;60181;53.258;6.932;2023-03-04T20:14:11;102346.30;;;14.25;60.27
65659;BME280;60181;53.258;6.932;2023-03-04T20:18:15;102344.94;;;14.24;60.28
65659;BME280;60181;53.258;6.932;2023-03-04T20:22:19;102344.53;;;14.23;60.25
65659;BME280;60181;53.258;6.932;2023-03-04T20:26:23;102344.81;;;14.23;60.28
65659;BME280;60181;53.258;6.932;2023-03-04T20:30:28;102346.45;;;14.22;60.20
65659;BME280;60181;53.258;6.932;2023-03-04T20:34:31;102347.74;;;14.22;60.20
65659;BME280;60181;53.258;6.932;2023-03-04T20:38:35;102347.41;;;14.21;60.25
65659;BME280;60181;53.258;6.932;2023-03-04T20:42:40;102346.80;;;14.20;60.21
65659;BME280;60181;53.258;6.932;2023-03-04T20:46:44;102344.64;;;14.20;60.21
65659;BME280;60181;53.258;6.932;2023-03-04T20:50:47;102342.30;;;14.19;60.20
65659;BME280;60181;53.258;6.932;2023-03-04T20:54:51;102339.83;;;14.19;60.22
65659;BME280;60181;53.258;6.932;2023-03-04T20:58:56;102337.06;;;14.18;60.23
65659;BME280;60181;53.258;6.932;2023-03-04T21:02:59;102333.76;;;14.18;60.17
65659;BME280;60181;53.258;6.932;2023-03-04T21:07:03;102331.09;;;14.17;60.17
65659;BME280;60181;53.258;6.932;2023-03-04T21:11:11;102327.51;;;14.16;60.15
65659;BME280;60181;53.258;6.932;2023-03-04T21:15:11;102323.88;;;14.16;60.14
65659;BME280;60181;53.258;6.932;2023-03-04T21:19:17;102318.89;;;14.15;60.12
65659;BME280;60181;53.258;6.932;2023-03-04T21:23:20;102313.34;;;14.14;60.12
65659;BME280;60181;53.258;6.932;2023-03-04T21:27:23;102309.38;;;14.13;60.09
65659;BME280;60181;53.258;6.932;2023-03-04T21:31:28;102305.46;;;14.13;60.09
65659;BME280;60181;53.258;6.932;2023-03-04T21:35:32;102301.42;;;14.12;60.08
65659;BME280;60181;53.258;6.932;2023-03-04T21:39:35;102298.66;;;14.11;60.03
65659;BME280;60181;53.258;6.932;2023-03-04T21:43:39;102296.56;;;14.10;60.06
65659;BME280;60181;53.258;6.932;2023-03-04T21:47:43;102293.88;;;14.09;60.06
65659;BME280;60181;53.258;6.932;2023-03-04T21:51:47;102291.24;;;14.09;60.04
65659;BME280;60181;53.258;6.932;2023-03-04T21:55:51;102288.85;;;14.09;60.07
65659;BME280;60181;53.258;6.932;2023-03-04T21:59:55;102285.27;;;14.08;60.10
65659;BME280;60181;53.258;6.932;2023-03-04T22:04:00;102281.03;;;14.07;60.07
65659;BME280;60181;53.258;6.932;2023-03-04T22:08:03;102278.14;;;14.07;60.05
65659;BME280;60181;53.258;6.932;2023-03-04T22:12:07;102274.16;;;14.06;60.04
65659;BME280;60181;53.258;6.932;2023-03-04T22:16:11;102269.86;;;14.06;60.03
65659;BME280;60181;53.258;6.932;2023-03-04T22:20:15;102267.07;;;14.05;60.02
65659;BME280;60181;53.258;6.932;2023-03-04T22:24:19;102265.62;;;14.05;59.96